createdAt,value
2023-01-27T00:00:20.126Z,81.21
2023-01-27T00:03:27.170Z,81.49
2023-01-27T00:06:31.653Z,81.73
2023-01-27T00:09:37.762Z,82.01
2023-01-27T00:13:01.769Z,83.20
2023-01-27T00:16:08.443Z,83.25
2023-01-27T00:19:07.934Z,81.82
2023-01-27T00:22:18.401Z,82.12
2023-01-27T00:25:24.696Z,80.97
2023-01-27T00:28:32.344Z,80.94
2023-01-27T00:31:55.561Z,79.99
2023-01-27T00:35:01.353Z,80.25
2023-01-27T00:38:06.795Z,80.17
2023-01-27T00:41:27.569Z,80.05
2023-01-27T00:44:33.178Z,80.04
2023-01-27T00:47:38.337Z,80.05
2023-01-27T00:50:46.033Z,80.45
2023-01-27T00:53:52.108Z,80.35
2023-01-27T00:56:58.756Z,80.45
2023-01-27T01:00:04.669Z,80.02
2023-01-27T01:03:10.277Z,80.35
2023-01-27T01:06:20.220Z,80.62
2023-01-27T01:09:17.866Z,80.37
2023-01-27T01:12:10.566Z,80.66
2023-01-27T01:15:17.339Z,80.25
2023-01-27T01:18:23.768Z,80.33
2023-01-27T01:21:29.950Z,79.71
2023-01-27T01:24:35.900Z,79.60
2023-01-27T01:27:44.937Z,78.84
2023-01-27T01:30:51.037Z,78.67
2023-01-27T01:33:58.549Z,79.23
2023-01-27T01:37:04.455Z,79.35
2023-01-27T01:40:03.662Z,79.12
2023-01-27T01:43:14.418Z,79.27
2023-01-27T01:46:19.967Z,79.10
2023-01-27T01:49:25.658Z,79.29
2023-01-27T01:52:34.099Z,79.22
2023-01-27T01:55:40.704Z,79.16
2023-01-27T01:58:46.464Z,79.28
2023-01-27T02:01:54.064Z,78.95
2023-01-27T02:05:14.541Z,78.82
2023-01-27T02:08:37.122Z,78.59
2023-01-27T02:11:43.980Z,78.51
2023-01-27T02:14:50.258Z,78.03
2023-01-27T02:17:56.162Z,78.17
2023-01-27T02:21:06.551Z,77.98
2023-01-27T02:24:18.713Z,77.88
2023-01-27T02:27:24.659Z,77.91
2023-01-27T02:30:23.654Z,77.76
2023-01-27T02:33:29.306Z,77.50
2023-01-27T02:36:28.616Z,80.37
2023-01-27T02:39:15.371Z,80.88
2023-01-27T02:42:07.734Z,81.07
2023-01-27T02:45:00.235Z,81.18
2023-01-27T02:48:05.457Z,80.75
2023-01-27T02:51:11.025Z,80.91
2023-01-27T02:54:17.801Z,81.37
2023-01-27T02:57:23.890Z,81.03
2023-01-27T03:00:44.715Z,80.46
2023-01-27T03:03:55.520Z,82.15
2023-01-27T03:07:02.362Z,80.69
2023-01-27T03:10:08.269Z,80.71
2023-01-27T03:13:13.532Z,84.00
2023-01-27T03:16:38.733Z,83.53
2023-01-27T03:19:43.783Z,82.78
2023-01-27T03:22:49.637Z,82.57
2023-01-27T03:25:53.782Z,82.57
2023-01-27T03:29:20.580Z,82.13
2023-01-27T03:32:26.596Z,82.49
2023-01-27T03:35:39.452Z,82.91
2023-01-27T03:39:03.124Z,83.21
2023-01-27T03:42:20.237Z,83.54
2023-01-27T03:45:43.415Z,83.42
2023-01-27T03:48:50.568Z,83.24
2023-01-27T03:51:57.177Z,82.55
2023-01-27T03:55:02.453Z,82.77
2023-01-27T03:58:27.557Z,83.36
2023-01-27T04:01:36.208Z,84.13
2023-01-27T04:04:59.222Z,85.48
2023-01-27T04:08:05.048Z,86.39
2023-01-27T04:11:35.263Z,87.09
2023-01-27T04:14:46.331Z,87.38
2023-01-27T04:17:52.418Z,89.91
2023-01-27T04:20:58.258Z,87.78
2023-01-27T04:24:03.326Z,87.35
2023-01-27T04:27:19.522Z,87.18
2023-01-27T04:30:25.174Z,87.38
2023-01-27T04:33:31.594Z,86.91
2023-01-27T04:36:38.142Z,86.97
2023-01-27T04:39:44.165Z,86.92
2023-01-27T04:42:49.304Z,87.61
2023-01-27T04:45:55.539Z,87.23
2023-01-27T04:49:03.244Z,87.83
2023-01-27T04:52:10.037Z,89.93
2023-01-27T04:55:16.311Z,91.58
2023-01-27T04:58:23.479Z,91.67
2023-01-27T05:01:29.645Z,91.07
2023-01-27T05:04:36.842Z,91.74
2023-01-27T05:07:43.248Z,90.94
2023-01-27T05:10:48.264Z,91.13
2023-01-27T05:13:55.515Z,91.70
2023-01-27T05:17:01.758Z,90.44
2023-01-27T05:20:07.375Z,90.20
2023-01-27T05:23:30.606Z,90.34
2023-01-27T05:26:38.929Z,90.13
2023-01-27T05:29:44.368Z,90.19
2023-01-27T05:32:50.946Z,90.22
2023-01-27T05:35:56.614Z,89.73
2023-01-27T05:39:02.760Z,89.21
2023-01-27T05:42:07.937Z,91.30
2023-01-27T05:45:13.571Z,92.56
2023-01-27T05:48:18.814Z,92.60
2023-01-27T05:51:25.410Z,91.80
2023-01-27T05:54:32.104Z,90.41
2023-01-27T05:57:37.393Z,89.72
2023-01-27T06:00:43.649Z,90.73
2023-01-27T06:03:49.422Z,91.40
2023-01-27T06:06:55.996Z,91.17
2023-01-27T06:10:01.936Z,90.10
2023-01-27T06:13:07.314Z,89.91
2023-01-27T06:16:06.465Z,89.54
2023-01-27T06:19:12.257Z,90.46
2023-01-27T06:22:17.899Z,90.19
2023-01-27T06:25:24.019Z,89.93
2023-01-27T06:28:30.252Z,89.35
2023-01-27T06:31:35.539Z,89.54
2023-01-27T06:34:41.381Z,89.18
2023-01-27T06:37:46.575Z,89.28
2023-01-27T06:40:44.895Z,89.15
2023-01-27T06:43:51.179Z,88.45
2023-01-27T06:46:57.889Z,89.50
2023-01-27T06:50:03.276Z,89.42
2023-01-27T06:53:16.740Z,88.93
2023-01-27T06:56:28.556Z,89.01
2023-01-27T06:59:36.502Z,88.93
2023-01-27T07:02:43.519Z,88.48
2023-01-27T07:05:49.530Z,87.54
2023-01-27T07:08:57.773Z,86.54
2023-01-27T07:12:03.492Z,86.63
2023-01-27T07:15:10.758Z,87.34
2023-01-27T07:18:10.706Z,87.87
2023-01-27T07:21:19.973Z,88.37
2023-01-27T07:24:26.359Z,88.47
2023-01-27T07:27:36.242Z,88.72
2023-01-27T07:30:42.506Z,88.17
2023-01-27T07:33:49.305Z,88.02
2023-01-27T07:36:55.272Z,88.78
2023-01-27T07:40:00.757Z,88.49
2023-01-27T07:43:06.596Z,88.34
2023-01-27T07:46:13.507Z,88.37
2023-01-27T07:49:19.816Z,88.31
2023-01-27T07:52:27.636Z,90.24
2023-01-27T07:55:36.781Z,89.66
2023-01-27T07:58:43.957Z,88.97
2023-01-27T08:01:50.643Z,88.32
2023-01-27T08:04:56.774Z,87.86
2023-01-27T08:08:05.556Z,87.75
2023-01-27T08:11:15.197Z,87.93
2023-01-27T08:14:20.343Z,88.00
2023-01-27T08:17:25.823Z,88.68
2023-01-27T08:20:24.421Z,89.55
2023-01-27T08:23:30.112Z,92.56
2023-01-27T08:26:35.022Z,90.55
2023-01-27T08:29:40.258Z,89.45
2023-01-27T08:32:46.212Z,89.71
2023-01-27T08:35:52.402Z,89.44
2023-01-27T08:38:59.007Z,90.67
2023-01-27T08:42:05.812Z,91.03
2023-01-27T08:45:11.035Z,91.45
2023-01-27T08:48:17.018Z,91.46
2023-01-27T08:51:23.395Z,90.71
2023-01-27T08:54:34.730Z,90.64
2023-01-27T08:57:42.015Z,90.98
2023-01-27T09:00:48.269Z,90.56
2023-01-27T09:03:53.779Z,89.49
2023-01-27T09:07:00.439Z,89.30
2023-01-27T09:10:20.226Z,89.09
2023-01-27T09:13:14.004Z,88.18
2023-01-27T09:16:19.584Z,88.09
2023-01-27T09:19:25.009Z,88.06
2023-01-27T09:22:30.167Z,87.69
2023-01-27T09:25:36.709Z,88.32
2023-01-27T09:28:41.929Z,88.40
2023-01-27T09:31:46.718Z,87.88
2023-01-27T09:34:54.448Z,87.90
2023-01-27T09:38:09.908Z,87.82
2023-01-27T09:41:41.925Z,87.53
2023-01-27T09:45:28.193Z,86.37
2023-01-27T09:49:19.218Z,86.02
2023-01-27T09:52:48.247Z,86.41
2023-01-27T09:56:30.094Z,86.65
2023-01-27T09:59:45.700Z,86.47
2023-01-27T10:03:13.578Z,85.88
2023-01-27T10:07:12.754Z,86.52
2023-01-27T10:10:40.432Z,86.34
2023-01-27T10:14:09.280Z,85.09
2023-01-27T10:17:45.112Z,85.07
2023-01-27T10:21:08.877Z,84.41
2023-01-27T10:24:28.842Z,84.60
2023-01-27T10:27:38.537Z,84.43
2023-01-27T10:30:51.111Z,84.70
2023-01-27T10:34:09.690Z,84.56
2023-01-27T10:37:42.055Z,83.59
2023-01-27T10:41:07.250Z,83.54
2023-01-27T10:44:39.541Z,84.57
2023-01-27T10:47:58.563Z,83.87
2023-01-27T10:51:18.000Z,83.77
2023-01-27T10:54:33.379Z,83.54
2023-01-27T10:57:46.132Z,83.74
2023-01-27T11:01:19.750Z,84.17
2023-01-27T11:04:20.144Z,82.89
2023-01-27T11:07:36.087Z,82.94
2023-01-27T11:10:54.810Z,82.68
2023-01-27T11:14:03.541Z,83.53
2023-01-27T11:17:28.316Z,82.81
2023-01-27T11:20:58.937Z,83.60
2023-01-27T11:24:07.875Z,83.38
2023-01-27T11:27:30.198Z,81.47
2023-01-27T11:31:09.131Z,81.28
2023-01-27T11:34:49.402Z,80.57
2023-01-27T11:38:14.833Z,79.49
2023-01-27T11:41:12.739Z,78.89
2023-01-27T11:44:30.551Z,79.05
2023-01-27T11:47:42.328Z,80.24
2023-01-27T11:50:48.953Z,80.26
2023-01-27T11:53:54.434Z,80.52
2023-01-27T11:57:03.279Z,80.64
2023-01-27T12:00:19.222Z,80.21
2023-01-27T12:03:47.237Z,79.34
2023-01-27T12:07:32.049Z,79.47
2023-01-27T12:10:51.576Z,78.99
2023-01-27T12:14:13.324Z,77.89
2023-01-27T12:17:19.301Z,78.60
2023-01-27T12:20:55.967Z,78.99
2023-01-27T12:24:01.167Z,78.60
2023-01-27T12:27:00.341Z,79.70
2023-01-27T12:30:09.626Z,80.21
2023-01-27T12:33:14.318Z,79.96
2023-01-27T12:36:32.151Z,79.88
2023-01-27T12:40:02.870Z,79.13
2023-01-27T12:43:27.692Z,78.85
2023-01-27T12:46:40.935Z,78.88
2023-01-27T12:49:51.096Z,78.60
2023-01-27T12:52:57.522Z,79.00
2023-01-27T12:56:23.956Z,79.88
2023-01-27T12:59:30.623Z,79.51
2023-01-27T13:02:37.367Z,79.81
2023-01-27T13:05:43.343Z,79.79
2023-01-27T13:08:41.881Z,79.55
2023-01-27T13:11:53.590Z,78.93
2023-01-27T13:14:59.605Z,79.17
2023-01-27T13:18:11.412Z,78.70
2023-01-27T13:21:33.041Z,78.18
2023-01-27T13:24:51.939Z,77.58
2023-01-27T13:27:57.957Z,77.84
2023-01-27T13:31:08.866Z,77.89
2023-01-27T13:34:21.604Z,78.30
2023-01-27T13:38:02.654Z,78.00
2023-01-27T13:41:08.415Z,77.99
2023-01-27T13:44:39.047Z,77.77
2023-01-27T13:48:11.648Z,77.81
2023-01-27T13:51:26.564Z,77.94
2023-01-27T13:54:33.596Z,78.15
2023-01-27T13:58:01.727Z,77.66
2023-01-27T14:01:24.269Z,77.83
2023-01-27T14:04:58.696Z,77.26
2023-01-27T14:08:20.545Z,76.82
2023-01-27T14:12:08.086Z,76.75
2023-01-27T14:15:36.952Z,77.73
2023-01-27T14:19:01.232Z,77.85
2023-01-27T14:22:11.690Z,77.85
2023-01-27T14:25:31.380Z,80.06
2023-01-27T14:29:07.162Z,80.56
2023-01-27T14:32:51.543Z,81.18
2023-01-27T14:36:25.040Z,81.43
2023-01-27T14:40:09.145Z,81.76
2023-01-27T14:43:33.072Z,82.53
2023-01-27T14:47:08.794Z,81.81
2023-01-27T14:50:47.664Z,81.11
2023-01-27T14:54:07.272Z,81.48
2023-01-27T14:57:48.696Z,80.46
2023-01-27T15:01:21.168Z,80.78
2023-01-27T15:04:52.443Z,82.23
2023-01-27T15:08:17.582Z,80.59
2023-01-27T15:12:08.795Z,80.66
2023-01-27T15:16:02.459Z,82.66
2023-01-27T15:19:25.899Z,82.17
2023-01-27T15:22:58.647Z,83.45
2023-01-27T15:26:07.866Z,82.72
2023-01-27T15:29:14.565Z,84.14
2023-01-27T15:32:39.791Z,82.66
2023-01-27T15:35:53.832Z,84.77
2023-01-27T15:39:39.640Z,85.19
2023-01-27T15:42:34.300Z,85.67
2023-01-27T15:45:54.963Z,85.91
2023-01-27T15:49:01.655Z,86.57
2023-01-27T15:52:11.719Z,85.68
2023-01-27T15:55:18.808Z,83.71
2023-01-27T15:58:35.474Z,84.59
2023-01-27T16:01:48.716Z,84.99
2023-01-27T16:04:48.815Z,86.54
2023-01-27T16:07:46.262Z,87.64
2023-01-27T16:10:52.327Z,87.61
2023-01-27T16:13:58.278Z,85.96
2023-01-27T16:17:17.275Z,85.61
2023-01-27T16:20:36.088Z,85.65
2023-01-27T16:23:52.874Z,84.00
2023-01-27T16:27:21.045Z,85.77
2023-01-27T16:30:27.221Z,86.01
2023-01-27T16:33:42.432Z,87.13
2023-01-27T16:36:45.289Z,87.17
2023-01-27T16:39:48.414Z,87.18
2023-01-27T16:42:54.695Z,87.07
2023-01-27T16:46:03.987Z,86.63
2023-01-27T16:49:11.530Z,86.55
2023-01-27T16:52:21.228Z,87.14
2023-01-27T16:55:35.539Z,86.51
2023-01-27T16:58:46.689Z,84.39
2023-01-27T17:02:11.937Z,83.97
2023-01-27T17:05:22.486Z,85.20
2023-01-27T17:08:43.887Z,85.34
2023-01-27T17:11:50.844Z,84.96
2023-01-27T17:14:57.725Z,85.42
2023-01-27T17:18:03.980Z,85.44
2023-01-27T17:21:10.045Z,85.25
2023-01-27T17:24:29.322Z,85.28
2023-01-27T17:27:43.538Z,85.78
2023-01-27T17:30:53.600Z,84.84
2023-01-27T17:34:02.626Z,85.06
2023-01-27T17:37:33.925Z,84.93
2023-01-27T17:40:40.008Z,85.08
2023-01-27T17:43:53.075Z,85.63
2023-01-27T17:46:58.005Z,85.56
2023-01-27T17:50:04.091Z,85.63
2023-01-27T17:53:13.061Z,86.01
2023-01-27T17:56:32.096Z,85.80
2023-01-27T17:59:37.352Z,85.69
2023-01-27T18:02:52.907Z,85.24
2023-01-27T18:05:59.958Z,85.85
2023-01-27T18:09:10.634Z,86.12
2023-01-27T18:12:13.201Z,86.32
2023-01-27T18:15:07.045Z,86.75
2023-01-27T18:18:19.672Z,85.02
2023-01-27T18:21:34.866Z,85.78
2023-01-27T18:24:41.092Z,85.57
2023-01-27T18:27:50.671Z,84.09
2023-01-27T18:31:03.948Z,84.63
2023-01-27T18:34:23.507Z,83.93
2023-01-27T18:37:47.235Z,84.93
2023-01-27T18:40:54.007Z,85.56
2023-01-27T18:44:02.960Z,86.01
2023-01-27T18:47:14.372Z,85.87
2023-01-27T18:50:31.845Z,86.01
2023-01-27T18:53:37.554Z,86.48
2023-01-27T18:56:42.565Z,85.99
2023-01-27T18:59:47.673Z,86.18
2023-01-27T19:02:53.668Z,85.42
2023-01-27T19:05:59.755Z,85.51
2023-01-27T19:09:05.346Z,84.94
2023-01-27T19:12:10.705Z,84.98
2023-01-27T19:15:16.609Z,85.15
2023-01-27T19:18:40.075Z,84.79
2023-01-27T19:21:47.461Z,84.97
2023-01-27T19:24:53.429Z,84.74
2023-01-27T19:27:57.600Z,85.26
2023-01-27T19:31:04.792Z,85.90
2023-01-27T19:34:10.186Z,85.77
2023-01-27T19:37:15.292Z,86.34
2023-01-27T19:40:27.629Z,85.54
2023-01-27T19:43:34.035Z,85.93
2023-01-27T19:46:39.953Z,85.99
2023-01-27T19:49:44.910Z,85.82
2023-01-27T19:52:50.072Z,85.46
2023-01-27T19:55:57.453Z,84.70
2023-01-27T19:58:58.285Z,84.37
2023-01-27T20:02:04.048Z,83.90
2023-01-27T20:05:02.879Z,84.11
2023-01-27T20:08:12.864Z,84.84
2023-01-27T20:11:19.421Z,84.76
2023-01-27T20:14:32.795Z,84.43
2023-01-27T20:17:38.412Z,83.66
2023-01-27T20:20:45.027Z,83.37
2023-01-27T20:23:51.341Z,83.58
2023-01-27T20:26:58.092Z,83.55
2023-01-27T20:30:04.921Z,83.35
2023-01-27T20:33:11.256Z,83.39
2023-01-27T20:36:22.627Z,83.15
2023-01-27T20:39:28.283Z,83.47
2023-01-27T20:42:35.322Z,83.08
2023-01-27T20:45:41.676Z,82.81
2023-01-27T20:48:47.880Z,82.51
2023-01-27T20:51:52.817Z,82.33
2023-01-27T20:54:58.548Z,82.06
2023-01-27T20:58:05.476Z,82.66
2023-01-27T21:01:28.773Z,82.44
2023-01-27T21:04:34.979Z,80.29
2023-01-27T21:07:40.261Z,82.05
2023-01-27T21:10:45.375Z,81.52
2023-01-27T21:13:52.088Z,81.43
2023-01-27T21:16:58.236Z,81.29
2023-01-27T21:20:03.869Z,81.11
2023-01-27T21:23:10.687Z,82.05
2023-01-27T21:26:14.714Z,82.88
2023-01-27T21:29:21.540Z,83.41
2023-01-27T21:32:27.171Z,83.22
2023-01-27T21:35:35.015Z,83.16
2023-01-27T21:38:41.157Z,83.55
2023-01-27T21:42:02.775Z,84.04
2023-01-27T21:45:20.141Z,84.00
2023-01-27T21:48:25.934Z,83.65
2023-01-27T21:51:32.480Z,83.48
2023-01-27T21:54:37.488Z,83.34
2023-01-27T21:57:42.727Z,84.10
2023-01-27T22:00:49.391Z,84.77
2023-01-27T22:03:54.607Z,84.81
2023-01-27T22:07:01.019Z,84.89
2023-01-27T22:10:06.430Z,84.94
2023-01-27T22:13:17.444Z,84.29
2023-01-27T22:16:26.972Z,85.24
2023-01-27T22:19:32.839Z,85.01
2023-01-27T22:22:39.226Z,85.37
2023-01-27T22:25:46.192Z,85.59
2023-01-27T22:28:52.740Z,85.66
2023-01-27T22:31:58.808Z,85.70
2023-01-27T22:35:04.503Z,85.19
2023-01-27T22:38:10.150Z,85.29
2023-01-27T22:41:16.824Z,85.30
2023-01-27T22:44:22.777Z,85.19
2023-01-27T22:47:29.104Z,84.87
2023-01-27T22:50:34.828Z,85.32
2023-01-27T22:53:40.806Z,85.58
2023-01-27T22:56:46.352Z,85.67
2023-01-27T22:59:45.449Z,85.36
2023-01-27T23:02:51.904Z,85.43
2023-01-27T23:05:57.994Z,86.05
2023-01-27T23:09:02.957Z,86.40
2023-01-27T23:12:09.390Z,86.58
2023-01-27T23:15:15.222Z,86.79
2023-01-27T23:18:22.749Z,87.08
2023-01-27T23:21:29.463Z,87.19
2023-01-27T23:24:35.559Z,87.24
2023-01-27T23:27:41.140Z,87.42
2023-01-27T23:30:47.101Z,86.61
2023-01-27T23:33:55.738Z,86.39
2023-01-27T23:37:00.511Z,87.43
2023-01-27T23:40:05.951Z,87.70
2023-01-27T23:43:05.548Z,87.83
2023-01-27T23:46:11.194Z,88.24
2023-01-27T23:49:17.144Z,88.20
2023-01-27T23:52:22.913Z,87.73
2023-01-27T23:55:28.870Z,87.82
2023-01-27T23:58:35.451Z,87.97
